createdAt,value
2023-03-23T15:58:29.966Z,96767.28
2023-03-23T15:59:31.677Z,96764.53
2023-03-23T16:00:35.777Z,96771.22
2023-03-23T16:01:39.504Z,96770.75
2023-03-23T16:02:43.571Z,96753.72
2023-03-23T16:03:51.612Z,96751.34
2023-03-23T16:04:53.257Z,96755.31
2023-03-23T16:05:57.411Z,96754.91
2023-03-23T16:07:00.117Z,96760.41
2023-03-23T16:08:01.736Z,96778.72
2023-03-23T16:09:05.980Z,96748.91
2023-03-23T16:10:11.170Z,96767.97
2023-03-23T16:11:14.029Z,96760.47
2023-03-23T16:12:17.732Z,96811.69
2023-03-23T16:13:19.410Z,96795.66
2023-03-23T16:14:22.091Z,96792.53
2023-03-23T16:15:23.730Z,96791.31
2023-03-23T16:16:29.251Z,96784.31
2023-03-23T16:17:30.974Z,96783.88
2023-03-23T16:18:33.767Z,96768.16
2023-03-23T16:19:36.308Z,96791.69
2023-03-23T16:20:40.052Z,96775.28
2023-03-23T16:21:42.817Z,96776.06
2023-03-23T16:22:44.445Z,96796.41
2023-03-23T16:23:47.176Z,96775.66
2023-03-23T16:24:50.375Z,96789.78
2023-03-23T16:25:53.103Z,96782.72
2023-03-23T16:26:55.879Z,96786.28
2023-03-23T16:27:58.505Z,96789.41
2023-03-23T16:29:12.360Z,96766.38
2023-03-23T16:30:22.452Z,96738.56
2023-03-23T16:31:24.069Z,96771.00
2023-03-23T16:32:26.743Z,96783.56
2023-03-23T16:33:28.427Z,96768.00
2023-03-23T16:34:33.652Z,96773.94
2023-03-23T16:35:36.771Z,96767.53
2023-03-23T16:36:38.472Z,96767.53
2023-03-23T16:37:44.823Z,96782.44
2023-03-23T16:38:49.327Z,96774.28
2023-03-23T16:39:54.398Z,96766.88
2023-03-23T16:40:56.370Z,96755.13
2023-03-23T16:41:59.095Z,96764.97
2023-03-23T16:43:00.758Z,96755.56
2023-03-23T16:44:03.357Z,96756.38
2023-03-23T16:45:08.528Z,96768.78
2023-03-23T16:46:11.575Z,96760.97
2023-03-23T16:47:13.477Z,96765.94
2023-03-23T16:48:16.838Z,96770.66
2023-03-23T16:49:18.448Z,96760.91
2023-03-23T16:50:21.208Z,96759.81
2023-03-23T16:51:22.980Z,96754.22
2023-03-23T16:52:25.745Z,96762.84
2023-03-23T16:53:28.413Z,96769.47
2023-03-23T16:54:30.139Z,96756.91
2023-03-23T16:55:34.098Z,96766.28
2023-03-23T16:56:36.027Z,96770.13
2023-03-23T16:57:39.026Z,96770.94
2023-03-23T16:58:42.979Z,96767.81
2023-03-23T16:59:44.917Z,96764.22
2023-03-23T17:00:49.732Z,96775.63
2023-03-23T17:01:51.885Z,96785.00
2023-03-23T17:02:56.937Z,96756.41
2023-03-23T17:03:59.601Z,96774.31
2023-03-23T17:05:01.737Z,96779.09
2023-03-23T17:06:05.713Z,96778.31
2023-03-23T17:07:07.373Z,96781.00
2023-03-23T17:08:09.996Z,96786.50
2023-03-23T17:09:11.656Z,96776.69
2023-03-23T17:10:14.519Z,96781.78
2023-03-23T17:11:18.472Z,96763.75
2023-03-23T17:12:20.785Z,96767.22
2023-03-23T17:13:25.305Z,96767.28
2023-03-23T17:14:26.952Z,96778.91
2023-03-23T17:15:29.757Z,96770.69
2023-03-23T17:16:31.408Z,96747.31
2023-03-23T17:17:34.097Z,96768.34
2023-03-23T17:18:36.058Z,96787.13
2023-03-23T17:19:38.919Z,96788.69
2023-03-23T17:20:41.610Z,96781.59
2023-03-23T17:21:43.384Z,96764.00
2023-03-23T17:22:46.025Z,96780.84
2023-03-23T17:23:47.664Z,96785.91
2023-03-23T17:24:50.283Z,96785.88
2023-03-23T17:25:53.939Z,96792.94
2023-03-23T17:26:57.937Z,96793.31
2023-03-23T17:28:05.730Z,96767.09
2023-03-23T17:29:08.011Z,96760.06
2023-03-23T17:30:11.091Z,96786.66
2023-03-23T17:31:12.818Z,96791.25
2023-03-23T17:32:15.645Z,96785.78
2023-03-23T17:33:18.502Z,96793.56
2023-03-23T17:34:20.128Z,96786.56
2023-03-23T17:35:22.842Z,96784.94
2023-03-23T17:36:24.653Z,96793.09
2023-03-23T17:37:27.498Z,96803.31
2023-03-23T17:38:29.201Z,96809.56
2023-03-23T17:39:32.619Z,96799.75
2023-03-23T17:40:46.010Z,96815.41
2023-03-23T17:41:47.724Z,96805.66
2023-03-23T17:42:51.668Z,96806.81
2023-03-23T17:43:53.335Z,96829.75
2023-03-23T17:44:56.134Z,96810.28
2023-03-23T17:45:57.748Z,96806.38
2023-03-23T17:47:01.262Z,96804.38
2023-03-23T17:48:07.413Z,96801.59
2023-03-23T17:49:10.451Z,96799.63
2023-03-23T17:50:12.778Z,96812.97
2023-03-23T17:51:15.547Z,96806.69
2023-03-23T17:52:17.186Z,96811.38
2023-03-23T17:53:20.095Z,96805.78
2023-03-23T17:54:21.795Z,96815.56
2023-03-23T17:55:24.477Z,96813.59
2023-03-23T17:56:29.102Z,96832.00
2023-03-23T17:57:31.900Z,96832.44
2023-03-23T17:58:35.362Z,96830.13
2023-03-23T17:59:38.184Z,96825.81
2023-03-23T18:00:39.909Z,96822.66
2023-03-23T18:01:42.482Z,96833.59
2023-03-23T18:02:44.260Z,96826.97
2023-03-23T18:03:47.235Z,96833.97
2023-03-23T18:04:49.127Z,96828.13
2023-03-23T18:05:52.245Z,96822.19
2023-03-23T18:06:56.281Z,96815.88
2023-03-23T18:07:58.232Z,96824.47
2023-03-23T18:09:01.191Z,96812.72
2023-03-23T18:10:03.479Z,96817.00
2023-03-23T18:11:06.891Z,96819.72
2023-03-23T18:12:08.698Z,96822.88
2023-03-23T18:13:11.442Z,96816.59
2023-03-23T18:14:15.433Z,96806.91
2023-03-23T18:15:17.445Z,96813.59
2023-03-23T18:16:20.468Z,96821.31
2023-03-23T18:17:22.130Z,96816.59
2023-03-23T18:18:25.118Z,96828.69
2023-03-23T18:19:28.838Z,96831.41
2023-03-23T18:20:31.858Z,96831.47
2023-03-23T18:21:34.522Z,96837.31
2023-03-23T18:22:37.123Z,96828.69
2023-03-23T18:23:49.334Z,96826.78
2023-03-23T18:24:55.747Z,96828.25
2023-03-23T18:25:57.511Z,96832.94
2023-03-23T18:27:02.114Z,96831.41
2023-03-23T18:28:05.808Z,96829.41
2023-03-23T18:29:09.451Z,96829.06
2023-03-23T18:30:12.644Z,96822.69
2023-03-23T18:31:16.210Z,96825.00
2023-03-23T18:32:19.776Z,96821.50
2023-03-23T18:33:21.999Z,96815.41
2023-03-23T18:34:24.761Z,96830.22
2023-03-23T18:35:26.514Z,96819.63
2023-03-23T18:36:30.089Z,96822.78
2023-03-23T18:37:32.853Z,96822.84
2023-03-23T18:38:34.567Z,96817.31
2023-03-23T18:39:37.959Z,96811.78
2023-03-23T18:40:42.900Z,96807.06
2023-03-23T18:41:45.764Z,96814.44
2023-03-23T18:42:47.393Z,96812.88
2023-03-23T18:43:49.977Z,96811.66
2023-03-23T18:44:52.726Z,96808.19
2023-03-23T18:45:56.624Z,96809.75
2023-03-23T18:47:00.106Z,96816.44
2023-03-23T18:48:01.873Z,96809.81
2023-03-23T18:49:04.689Z,96804.34
2023-03-23T18:50:07.351Z,96808.19
2023-03-23T18:51:09.943Z,96810.13
2023-03-23T18:52:12.707Z,96803.09
2023-03-23T18:53:14.869Z,96806.97
2023-03-23T18:54:17.567Z,96801.13
2023-03-23T18:55:20.899Z,96794.84
2023-03-23T18:56:24.822Z,96793.78
2023-03-23T18:57:26.885Z,96784.00
2023-03-23T18:58:29.595Z,96784.44
2023-03-23T18:59:34.405Z,96798.06
2023-03-23T19:00:37.137Z,96798.41
2023-03-23T19:01:41.156Z,96794.91
2023-03-23T19:02:44.165Z,96798.81
2023-03-23T19:03:47.267Z,96796.47
2023-03-23T19:04:48.993Z,96799.97
2023-03-23T19:05:51.678Z,96794.06
2023-03-23T19:06:53.371Z,96792.94
2023-03-23T19:07:56.545Z,96792.22
2023-03-23T19:08:59.246Z,96799.97
2023-03-23T19:10:01.929Z,96787.84
2023-03-23T19:11:04.368Z,96789.44
2023-03-23T19:12:07.417Z,96791.78
2023-03-23T19:13:09.320Z,96789.91
2023-03-23T19:14:11.909Z,96789.84
2023-03-23T19:15:13.685Z,96791.00
2023-03-23T19:16:16.313Z,96782.81
2023-03-23T19:17:20.344Z,96792.91
2023-03-23T19:18:22.173Z,96778.00
2023-03-23T19:19:25.480Z,96784.69
2023-03-23T19:20:57.329Z,96779.66
2023-03-23T19:21:50.130Z,96785.13
2023-03-23T19:22:51.834Z,96786.66
2023-03-23T19:23:54.758Z,96783.91
2023-03-23T19:24:56.976Z,96778.06
2023-03-23T19:25:59.581Z,96771.84
2023-03-23T19:27:01.720Z,96764.84
2023-03-23T19:30:16.246Z,96769.97
2023-03-23T19:31:21.546Z,96767.19
2023-03-23T19:32:25.633Z,96753.97
2023-03-23T19:33:27.269Z,96763.31
2023-03-23T19:34:30.722Z,96766.00
2023-03-23T19:35:32.370Z,96756.25
2023-03-23T19:36:35.531Z,96757.84
2023-03-23T19:37:38.184Z,96751.22
2023-03-23T19:38:39.827Z,96753.97
2023-03-23T19:39:43.107Z,96759.84
2023-03-23T19:40:51.792Z,96750.44
2023-03-23T19:41:55.839Z,96754.38
2023-03-23T19:42:57.654Z,96752.44
2023-03-23T19:44:01.212Z,96750.44
2023-03-23T19:45:03.476Z,96742.25
2023-03-23T19:46:06.422Z,96756.25
2023-03-23T19:47:08.062Z,96740.63
2023-03-23T19:48:12.176Z,96742.56
2023-03-23T19:49:14.668Z,96746.00
2023-03-23T19:50:17.636Z,96735.88
2023-03-23T19:51:20.164Z,96736.22
2023-03-23T19:52:23.370Z,96730.03
2023-03-23T19:53:27.087Z,96728.91
2023-03-23T19:54:28.737Z,96729.28
2023-03-23T19:55:31.526Z,96719.50
2023-03-23T19:56:34.450Z,96717.16
2023-03-23T19:57:37.879Z,96731.19
2023-03-23T19:58:39.963Z,96720.31
2023-03-23T19:59:42.992Z,96712.50
2023-03-23T20:00:45.837Z,96715.56
2023-03-23T20:01:48.800Z,96715.19
2023-03-23T20:02:51.580Z,96716.72
2023-03-23T20:03:57.500Z,96707.31
2023-03-23T20:05:02.686Z,96715.19
2023-03-23T20:06:07.126Z,96723.41
2023-03-23T20:07:08.880Z,96714.09
2023-03-23T20:08:11.641Z,96707.81
2023-03-23T20:09:13.389Z,96703.44
2023-03-23T20:10:16.403Z,96715.94
2023-03-23T20:11:19.729Z,96712.03
2023-03-23T20:12:22.542Z,96709.34
2023-03-23T20:13:24.762Z,96717.91
2023-03-23T20:14:27.388Z,96712.84
2023-03-23T20:15:29.957Z,96713.69
2023-03-23T20:16:33.012Z,96724.97
2023-03-23T20:17:35.319Z,96725.00
2023-03-23T20:18:38.519Z,96720.31
2023-03-23T20:19:41.655Z,96730.81
2023-03-23T20:20:44.521Z,96720.25
2023-03-23T20:21:47.509Z,96719.09
2023-03-23T20:22:50.790Z,96710.88
2023-03-23T20:23:58.600Z,96719.50
2023-03-23T20:25:01.423Z,96727.63
2023-03-23T20:26:05.769Z,96715.56
2023-03-23T20:27:08.394Z,96734.69
2023-03-23T20:28:10.169Z,96720.69
2023-03-23T20:29:12.952Z,96724.97
2023-03-23T20:30:14.972Z,96723.78
2023-03-23T20:31:23.199Z,96724.56
2023-03-23T20:32:26.144Z,96714.41
2023-03-23T20:33:30.437Z,96716.78
2023-03-23T20:34:33.333Z,96708.56
2023-03-23T20:35:36.718Z,96718.69
2023-03-23T20:36:45.432Z,96715.94
2023-03-23T20:37:52.601Z,96723.41
2023-03-23T20:38:54.222Z,96717.53
2023-03-23T20:39:57.232Z,96708.63
2023-03-23T20:40:59.629Z,96731.25
2023-03-23T20:42:03.308Z,96721.50
2023-03-23T20:43:04.966Z,96714.03
2023-03-23T20:44:13.474Z,96725.31
2023-03-23T20:45:15.983Z,96714.81
2023-03-23T20:46:19.007Z,96713.25
2023-03-23T20:47:21.591Z,96710.88
2023-03-23T20:48:23.820Z,96710.50
2023-03-23T20:49:27.440Z,96714.75
2023-03-23T20:50:30.209Z,96718.28
2023-03-23T20:51:33.562Z,96719.50
2023-03-23T20:52:36.798Z,96721.78
2023-03-23T20:53:39.507Z,96710.53
2023-03-23T20:54:42.653Z,96711.66
2023-03-23T20:55:45.599Z,96715.13
2023-03-23T20:56:48.371Z,96715.19
2023-03-23T20:57:50.006Z,96714.41
2023-03-23T20:58:53.386Z,96712.94
2023-03-23T20:59:55.614Z,96718.00
2023-03-23T21:00:59.137Z,96702.47
2023-03-23T21:02:01.783Z,96711.06
2023-03-23T21:03:03.438Z,96703.63
2023-03-23T21:04:08.111Z,96705.84
2023-03-23T21:05:09.743Z,96702.38
2023-03-23T21:06:12.333Z,96699.22
2023-03-23T21:07:16.319Z,96699.69
2023-03-23T21:08:19.592Z,96696.59
2023-03-23T21:09:21.399Z,96692.28
2023-03-23T21:10:25.626Z,96697.78
2023-03-23T21:11:27.580Z,96696.16
2023-03-23T21:12:30.343Z,96691.94
2023-03-23T21:13:32.100Z,96691.63
2023-03-23T21:14:34.787Z,96704.00
2023-03-23T21:15:36.544Z,96704.88
2023-03-23T21:16:39.210Z,96691.56
2023-03-23T21:17:42.071Z,96695.50
2023-03-23T21:18:44.086Z,96692.72
2023-03-23T21:19:47.542Z,96686.97
2023-03-23T21:20:50.354Z,96690.03
2023-03-23T21:21:55.722Z,96677.88
2023-03-23T21:22:59.909Z,96686.09
2023-03-23T21:24:03.501Z,96674.38
2023-03-23T21:25:06.720Z,96679.91
2023-03-23T21:26:09.509Z,96687.78
2023-03-23T21:27:12.122Z,96684.25
2023-03-23T21:28:13.776Z,96678.00
2023-03-23T21:29:16.413Z,96672.53
2023-03-23T21:30:18.262Z,96669.69
2023-03-23T21:31:21.239Z,96676.81
2023-03-23T21:32:23.875Z,96664.28
2023-03-23T21:33:25.706Z,96661.50
2023-03-23T21:34:28.416Z,96668.91
2023-03-23T21:35:30.223Z,96667.84
2023-03-23T21:36:32.841Z,96672.16
2023-03-23T21:37:34.532Z,96671.78
2023-03-23T21:38:39.674Z,96655.41
2023-03-23T21:39:41.621Z,96664.38
2023-03-23T21:40:44.716Z,96668.59
2023-03-23T21:41:49.651Z,96660.03
2023-03-23T21:42:53.116Z,96654.16
2023-03-23T21:43:55.845Z,96655.75
2023-03-23T21:44:57.654Z,96642.47
2023-03-23T21:46:02.811Z,96642.00
2023-03-23T21:47:05.562Z,96645.19
2023-03-23T21:48:07.291Z,96636.63
2023-03-23T21:49:14.024Z,96642.81
2023-03-23T21:50:16.306Z,96648.31
2023-03-23T21:51:21.145Z,96638.53
2023-03-23T21:52:22.824Z,96646.00
2023-03-23T21:53:28.014Z,96635.84
2023-03-23T21:54:34.302Z,96627.53
2023-03-23T21:55:36.205Z,96628.81
2023-03-23T21:56:39.111Z,96621.41
2023-03-23T21:57:42.245Z,96625.31
2023-03-23T21:58:44.967Z,96624.88
2023-03-23T21:59:47.857Z,96622.19
2023-03-23T22:00:53.736Z,96615.91
2023-03-23T22:01:58.065Z,96610.03
2023-03-23T22:03:00.145Z,96633.06
2023-03-23T22:04:02.944Z,96628.81
2023-03-23T22:05:05.212Z,96616.72
2023-03-23T22:06:10.650Z,96604.22
2023-03-23T22:07:12.811Z,96610.03
2023-03-23T22:08:15.566Z,96611.47
2023-03-23T22:09:18.531Z,96590.78
2023-03-23T22:10:21.606Z,96599.00
2023-03-23T22:11:25.234Z,96611.84
2023-03-23T22:12:27.475Z,96606.41
2023-03-23T22:13:30.523Z,96601.75
2023-03-23T22:14:32.362Z,96596.41
2023-03-23T22:15:35.278Z,96609.69
2023-03-23T22:16:37.247Z,96591.31
2023-03-23T22:17:40.089Z,96600.53
2023-03-23T22:18:43.244Z,96598.09
2023-03-23T22:19:46.379Z,96590.38
2023-03-23T22:20:48.126Z,96586.47
2023-03-23T22:21:50.814Z,96590.75
2023-03-23T22:22:53.347Z,96584.44
2023-03-23T22:23:57.440Z,96591.06
2023-03-23T22:24:59.191Z,96576.25
2023-03-23T22:26:03.790Z,96595.88
2023-03-23T22:27:05.424Z,96589.97
2023-03-23T22:28:08.350Z,96595.47
2023-03-23T22:29:11.256Z,96593.91
2023-03-23T22:30:14.168Z,96597.84
2023-03-23T22:31:18.407Z,96589.22
2023-03-23T22:32:21.309Z,96585.63
2023-03-23T22:33:23.029Z,96581.63
2023-03-23T22:34:25.857Z,96581.22
2023-03-23T22:35:27.571Z,96577.59
2023-03-23T22:36:30.764Z,96573.38
2023-03-23T22:37:32.391Z,96567.16
2023-03-23T22:38:35.454Z,96569.00
2023-03-23T22:39:38.735Z,96573.63
2023-03-23T22:40:42.458Z,96557.97
2023-03-23T22:41:46.573Z,96551.31
2023-03-23T22:42:48.239Z,96562.63
2023-03-23T22:43:50.855Z,96569.41
2023-03-23T22:44:52.484Z,96557.75
2023-03-23T22:45:55.294Z,96560.78
2023-03-23T22:46:57.013Z,96549.41
2023-03-23T22:47:59.876Z,96547.38
2023-03-23T22:49:01.750Z,96536.03
2023-03-23T22:50:04.555Z,96545.38
2023-03-23T22:51:08.144Z,96539.88
2023-03-23T22:52:09.952Z,96541.06
2023-03-23T22:53:12.546Z,96528.16
2023-03-23T22:54:15.575Z,96530.53
2023-03-23T22:55:17.277Z,96532.75
2023-03-23T22:56:20.042Z,96518.97
2023-03-23T22:57:24.167Z,96512.69
2023-03-23T22:58:26.230Z,96505.25
2023-03-23T22:59:28.875Z,96513.31
2023-03-23T23:00:30.842Z,96517.59
2023-03-23T23:01:33.519Z,96521.50
2023-03-23T23:02:35.277Z,96528.59
2023-03-23T23:03:38.360Z,96528.22
2023-03-23T23:04:40.894Z,96523.03
2023-03-23T23:05:43.751Z,96539.72
2023-03-23T23:06:46.354Z,96536.25
2023-03-23T23:07:48.027Z,96535.00
2023-03-23T23:08:51.679Z,96526.06
2023-03-23T23:09:53.316Z,96528.06
2023-03-23T23:10:57.513Z,96541.31
2023-03-23T23:11:59.292Z,96532.63
2023-03-23T23:13:03.312Z,96516.97
2023-03-23T23:14:05.424Z,96509.56
2023-03-23T23:15:09.406Z,96512.94
2023-03-23T23:16:12.162Z,96508.34
2023-03-23T23:17:14.040Z,96512.41
2023-03-23T23:18:16.953Z,96504.13
2023-03-23T23:19:18.550Z,96503.09
2023-03-23T23:20:24.418Z,96486.34
2023-03-23T23:21:26.569Z,96496.91
2023-03-23T23:22:29.221Z,96486.06
2023-03-23T23:23:31.710Z,96478.72
2023-03-23T23:24:34.302Z,96478.34
2023-03-23T23:25:36.564Z,96482.94
2023-03-23T23:26:39.169Z,96471.28
2023-03-23T23:27:41.228Z,96460.31
2023-03-23T23:28:45.494Z,96444.75
2023-03-23T23:29:47.838Z,96454.38
2023-03-23T23:30:50.824Z,96450.47
2023-03-23T23:31:52.445Z,96455.16
2023-03-23T23:32:55.432Z,96435.72
2023-03-23T23:33:58.232Z,96438.50
2023-03-23T23:35:00.950Z,96441.22
2023-03-23T23:36:02.644Z,96439.72
2023-03-23T23:37:05.671Z,96440.91
2023-03-23T23:38:09.263Z,96434.69
2023-03-23T23:39:12.113Z,96437.00
2023-03-23T23:40:15.097Z,96442.50
2023-03-23T23:41:18.349Z,96448.06
2023-03-23T23:42:19.967Z,96446.50
2023-03-23T23:43:22.573Z,96444.88
2023-03-23T23:44:25.895Z,96443.31
2023-03-23T23:45:28.532Z,96435.97
2023-03-23T23:46:30.909Z,96432.81
2023-03-23T23:47:33.930Z,96426.97
2023-03-23T23:48:35.603Z,96430.88
2023-03-23T23:49:38.505Z,96427.72
2023-03-23T23:50:40.195Z,96421.47
2023-03-23T23:51:44.580Z,96412.19
2023-03-23T23:52:46.563Z,96415.72
2023-03-23T23:53:53.523Z,96409.06
2023-03-23T23:54:55.278Z,96403.63
2023-03-23T23:55:57.866Z,96408.22
2023-03-23T23:57:00.011Z,96407.50
2023-03-23T23:58:02.622Z,96400.50
2023-03-23T23:59:04.312Z,96407.88
